sensor_id;sensor_type;location;lat;lon;timestamp;pressure;altitude;pressure_sealevel;temperature;humidity
81990;BME280;71485;51.638;-0.182;2023-10-13T00:00:46;99761.42;;;24.49;36.32
81990;BME280;71485;51.638;-0.182;2023-10-13T00:03:13;99756.06;;;24.78;36.23
81990;BME280;71485;51.638;-0.182;2023-10-13T00:05:37;99754.25;;;24.85;36.19
81990;BME280;71485;51.638;-0.182;2023-10-13T00:08:04;99752.86;;;24.85;36.12
81990;BME280;71485;51.638;-0.182;2023-10-13T00:10:29;99748.37;;;24.51;36.27
81990;BME280;71485;51.638;-0.182;2023-10-13T00:12:55;99746.10;;;24.54;36.25
81990;BME280;71485;51.638;-0.182;2023-10-13T00:15:19;99745.42;;;25.08;36.15
81990;BME280;71485;51.638;-0.182;2023-10-13T00:17:45;99740.54;;;24.76;36.22
81990;BME280;71485;51.638;-0.182;2023-10-13T00:20:11;99737.26;;;24.90;36.09
81990;BME280;71485;51.638;-0.182;2023-10-13T00:22:36;99734.06;;;25.00;36.25
81990;BME280;71485;51.638;-0.182;2023-10-13T00:25:01;99725.55;;;24.80;36.26
81990;BME280;71485;51.638;-0.182;2023-10-13T00:27:28;99721.52;;;24.74;36.34
81990;BME280;71485;51.638;-0.182;2023-10-13T00:29:52;99711.82;;;24.57;36.25
81990;BME280;71485;51.638;-0.182;2023-10-13T00:32:18;99709.68;;;24.83;36.22
81990;BME280;71485;51.638;-0.182;2023-10-13T00:34:44;99706.37;;;24.55;36.26
81990;BME280;71485;51.638;-0.182;2023-10-13T00:37:09;99697.91;;;24.80;36.25
81990;BME280;71485;51.638;-0.182;2023-10-13T00:39:36;99694.55;;;24.43;36.45
81990;BME280;71485;51.638;-0.182;2023-10-13T00:42:01;99684.15;;;24.78;36.29
81990;BME280;71485;51.638;-0.182;2023-10-13T00:44:26;99673.16;;;24.72;36.35
81990;BME280;71485;51.638;-0.182;2023-10-13T00:46:51;99667.83;;;24.48;36.40
81990;BME280;71485;51.638;-0.182;2023-10-13T00:49:17;99664.39;;;24.73;36.41
81990;BME280;71485;51.638;-0.182;2023-10-13T00:51:43;99660.25;;;24.32;36.60
81990;BME280;71485;51.638;-0.182;2023-10-13T00:54:09;99655.90;;;24.92;36.50
81990;BME280;71485;51.638;-0.182;2023-10-13T00:56:34;99651.13;;;24.63;36.56
81990;BME280;71485;51.638;-0.182;2023-10-13T00:59:00;99641.57;;;24.59;36.64
81990;BME280;71485;51.638;-0.182;2023-10-13T01:01:25;99635.08;;;24.97;36.40
81990;BME280;71485;51.638;-0.182;2023-10-13T01:03:52;99623.67;;;24.94;36.43
81990;BME280;71485;51.638;-0.182;2023-10-13T01:06:18;99615.22;;;24.37;36.55
81990;BME280;71485;51.638;-0.182;2023-10-13T01:08:45;99611.21;;;24.34;36.57
81990;BME280;71485;51.638;-0.182;2023-10-13T01:11:08;99602.46;;;24.63;36.54
81990;BME280;71485;51.638;-0.182;2023-10-13T01:13:33;99594.98;;;24.85;36.55
81990;BME280;71485;51.638;-0.182;2023-10-13T01:15:58;99597.32;;;24.65;36.46
81990;BME280;71485;51.638;-0.182;2023-10-13T01:18:24;99603.88;;;24.64;36.45
81990;BME280;71485;51.638;-0.182;2023-10-13T01:20:49;99580.70;;;24.83;36.55
81990;BME280;71485;51.638;-0.182;2023-10-13T01:23:15;99578.38;;;24.50;36.64
81990;BME280;71485;51.638;-0.182;2023-10-13T01:25:42;99579.40;;;24.35;36.54
81990;BME280;71485;51.638;-0.182;2023-10-13T01:28:06;99566.72;;;24.80;36.59
81990;BME280;71485;51.638;-0.182;2023-10-13T01:30:32;99564.21;;;24.80;36.62
81990;BME280;71485;51.638;-0.182;2023-10-13T01:32:57;99554.60;;;24.48;36.76
81990;BME280;71485;51.638;-0.182;2023-10-13T01:35:23;99545.74;;;24.53;36.70
81990;BME280;71485;51.638;-0.182;2023-10-13T01:37:52;99543.61;;;24.32;36.64
81990;BME280;71485;51.638;-0.182;2023-10-13T01:40:14;99539.85;;;24.63;36.89
81990;BME280;71485;51.638;-0.182;2023-10-13T01:42:40;99543.52;;;24.21;36.86
81990;BME280;71485;51.638;-0.182;2023-10-13T01:45:06;99534.27;;;24.50;36.78
81990;BME280;71485;51.638;-0.182;2023-10-13T01:47:30;99536.47;;;24.41;36.88
81990;BME280;71485;51.638;-0.182;2023-10-13T01:49:56;99533.83;;;24.43;36.91
81990;BME280;71485;51.638;-0.182;2023-10-13T01:52:22;99520.18;;;24.71;36.81
81990;BME280;71485;51.638;-0.182;2023-10-13T01:54:48;99516.26;;;24.40;36.94
81990;BME280;71485;51.638;-0.182;2023-10-13T01:57:13;99508.21;;;24.75;36.82
81990;BME280;71485;51.638;-0.182;2023-10-13T01:59:39;99505.07;;;24.79;36.80
81990;BME280;71485;51.638;-0.182;2023-10-13T02:02:04;99503.99;;;24.42;36.97
81990;BME280;71485;51.638;-0.182;2023-10-13T02:04:30;99501.66;;;24.76;36.88
81990;BME280;71485;51.638;-0.182;2023-10-13T02:06:56;99492.42;;;24.12;37.74
81990;BME280;71485;51.638;-0.182;2023-10-13T02:09:22;99495.39;;;24.22;38.73
81990;BME280;71485;51.638;-0.182;2023-10-13T02:11:47;99489.04;;;24.06;38.44
81990;BME280;71485;51.638;-0.182;2023-10-13T02:14:12;99487.77;;;24.35;38.30
81990;BME280;71485;51.638;-0.182;2023-10-13T02:16:38;99483.62;;;24.51;37.52
81990;BME280;71485;51.638;-0.182;2023-10-13T02:19:03;99487.43;;;24.29;38.83
81990;BME280;71485;51.638;-0.182;2023-10-13T02:21:28;99484.77;;;24.57;39.30
81990;BME280;71485;51.638;-0.182;2023-10-13T02:23:55;99481.57;;;24.58;37.51
81990;BME280;71485;51.638;-0.182;2023-10-13T02:26:20;99468.08;;;24.40;37.44
81990;BME280;71485;51.638;-0.182;2023-10-13T02:28:45;99469.23;;;24.20;39.59
81990;BME280;71485;51.638;-0.182;2023-10-13T02:31:11;99460.61;;;24.90;37.27
81990;BME280;71485;51.638;-0.182;2023-10-13T02:33:36;99454.46;;;24.25;39.29
81990;BME280;71485;51.638;-0.182;2023-10-13T02:36:04;99440.40;;;24.79;39.38
81990;BME280;71485;51.638;-0.182;2023-10-13T02:38:28;99439.08;;;24.41;37.82
81990;BME280;71485;51.638;-0.182;2023-10-13T02:40:53;99432.46;;;24.55;38.03
81990;BME280;71485;51.638;-0.182;2023-10-13T02:43:18;99426.59;;;24.54;38.84
81990;BME280;71485;51.638;-0.182;2023-10-13T02:45:52;99411.64;;;24.84;37.04
81990;BME280;71485;51.638;-0.182;2023-10-13T02:48:09;99406.14;;;24.77;38.37
81990;BME280;71485;51.638;-0.182;2023-10-13T02:50:40;99398.14;;;24.65;37.64
81990;BME280;71485;51.638;-0.182;2023-10-13T02:53:00;99382.66;;;24.86;37.38
81990;BME280;71485;51.638;-0.182;2023-10-13T02:55:27;99377.11;;;24.69;37.02
81990;BME280;71485;51.638;-0.182;2023-10-13T02:57:51;99369.29;;;25.11;36.07
81990;BME280;71485;51.638;-0.182;2023-10-13T03:00:17;99363.02;;;25.32;35.78
81990;BME280;71485;51.638;-0.182;2023-10-13T03:02:43;99358.73;;;24.91;35.93
81990;BME280;71485;51.638;-0.182;2023-10-13T03:05:09;99352.92;;;25.03;36.03
81990;BME280;71485;51.638;-0.182;2023-10-13T03:07:34;99350.43;;;24.95;36.17
81990;BME280;71485;51.638;-0.182;2023-10-13T03:10:00;99341.60;;;24.78;36.39
81990;BME280;71485;51.638;-0.182;2023-10-13T03:12:26;99338.15;;;25.03;36.39
81990;BME280;71485;51.638;-0.182;2023-10-13T03:14:51;99332.06;;;24.59;36.30
81990;BME280;71485;51.638;-0.182;2023-10-13T03:17:16;99327.72;;;24.76;36.40
81990;BME280;71485;51.638;-0.182;2023-10-13T03:19:42;99318.99;;;24.23;36.46
81990;BME280;71485;51.638;-0.182;2023-10-13T03:22:10;99318.30;;;24.63;36.61
81990;BME280;71485;51.638;-0.182;2023-10-13T03:24:32;99305.23;;;24.96;36.43
81990;BME280;71485;51.638;-0.182;2023-10-13T03:26:59;99297.82;;;24.45;36.40
81990;BME280;71485;51.638;-0.182;2023-10-13T03:29:24;99284.44;;;24.87;36.51
81990;BME280;71485;51.638;-0.182;2023-10-13T03:31:49;99279.97;;;24.60;36.52
81990;BME280;71485;51.638;-0.182;2023-10-13T03:34:15;99273.82;;;24.61;36.53
81990;BME280;71485;51.638;-0.182;2023-10-13T03:36:40;99274.26;;;24.45;36.41
81990;BME280;71485;51.638;-0.182;2023-10-13T03:39:07;99260.53;;;24.56;36.57
81990;BME280;71485;51.638;-0.182;2023-10-13T03:41:33;99250.52;;;24.84;36.54
81990;BME280;71485;51.638;-0.182;2023-10-13T03:43:57;99243.46;;;24.49;36.65
81990;BME280;71485;51.638;-0.182;2023-10-13T03:46:22;99237.28;;;24.65;36.75
81990;BME280;71485;51.638;-0.182;2023-10-13T03:48:48;99224.30;;;24.74;36.66
81990;BME280;71485;51.638;-0.182;2023-10-13T03:51:15;99208.46;;;24.78;36.60
81990;BME280;71485;51.638;-0.182;2023-10-13T03:53:40;99204.76;;;24.20;36.72
81990;BME280;71485;51.638;-0.182;2023-10-13T03:56:05;99198.01;;;24.51;36.63
81990;BME280;71485;51.638;-0.182;2023-10-13T03:58:30;99199.18;;;24.81;36.50
81990;BME280;71485;51.638;-0.182;2023-10-13T04:00:56;99189.96;;;24.55;36.53
81990;BME280;71485;51.638;-0.182;2023-10-13T04:03:22;99174.36;;;24.64;36.40
81990;BME280;71485;51.638;-0.182;2023-10-13T04:05:47;99165.72;;;24.54;36.52
81990;BME280;71485;51.638;-0.182;2023-10-13T04:08:19;99152.63;;;24.57;36.44
81990;BME280;71485;51.638;-0.182;2023-10-13T04:10:43;99142.21;;;24.86;36.39
81990;BME280;71485;51.638;-0.182;2023-10-13T04:13:03;99138.19;;;24.51;36.53
81990;BME280;71485;51.638;-0.182;2023-10-13T04:15:29;99127.62;;;24.82;36.50
81990;BME280;71485;51.638;-0.182;2023-10-13T04:17:55;99133.69;;;24.84;36.44
81990;BME280;71485;51.638;-0.182;2023-10-13T04:20:20;99127.62;;;24.74;36.59
81990;BME280;71485;51.638;-0.182;2023-10-13T04:22:46;99126.63;;;24.51;36.60
81990;BME280;71485;51.638;-0.182;2023-10-13T04:25:11;99117.99;;;24.73;36.58
81990;BME280;71485;51.638;-0.182;2023-10-13T04:27:39;99112.55;;;24.77;36.57
81990;BME280;71485;51.638;-0.182;2023-10-13T04:30:03;99114.15;;;24.73;36.63
81990;BME280;71485;51.638;-0.182;2023-10-13T04:32:28;99107.03;;;24.48;36.62
81990;BME280;71485;51.638;-0.182;2023-10-13T04:34:54;99096.68;;;24.40;36.76
81990;BME280;71485;51.638;-0.182;2023-10-13T04:37:20;99097.83;;;24.64;36.74
81990;BME280;71485;51.638;-0.182;2023-10-13T04:39:46;99103.49;;;24.59;36.88
81990;BME280;71485;51.638;-0.182;2023-10-13T04:42:12;99091.42;;;24.64;36.85
81990;BME280;71485;51.638;-0.182;2023-10-13T04:44:36;99097.98;;;24.67;36.84
81990;BME280;71485;51.638;-0.182;2023-10-13T04:47:02;99091.39;;;24.49;36.82
81990;BME280;71485;51.638;-0.182;2023-10-13T04:49:28;99092.31;;;24.60;36.91
81990;BME280;71485;51.638;-0.182;2023-10-13T04:51:53;99083.18;;;24.42;36.91
81990;BME280;71485;51.638;-0.182;2023-10-13T04:54:18;99077.90;;;24.69;36.90
81990;BME280;71485;51.638;-0.182;2023-10-13T04:56:44;99074.77;;;24.45;36.89
81990;BME280;71485;51.638;-0.182;2023-10-13T04:59:09;99068.89;;;24.69;36.83
81990;BME280;71485;51.638;-0.182;2023-10-13T05:01:36;99066.05;;;24.42;36.92
81990;BME280;71485;51.638;-0.182;2023-10-13T05:04:02;99060.43;;;24.47;36.91
81990;BME280;71485;51.638;-0.182;2023-10-13T05:06:26;99056.50;;;24.25;36.91
81990;BME280;71485;51.638;-0.182;2023-10-13T05:08:52;99059.64;;;24.60;37.09
81990;BME280;71485;51.638;-0.182;2023-10-13T05:11:18;99052.99;;;24.61;37.08
81990;BME280;71485;51.638;-0.182;2023-10-13T05:13:42;99051.20;;;24.28;37.23
81990;BME280;71485;51.638;-0.182;2023-10-13T05:16:08;99048.64;;;24.78;36.92
81990;BME280;71485;51.638;-0.182;2023-10-13T05:18:34;99046.27;;;24.74;37.01
81990;BME280;71485;51.638;-0.182;2023-10-13T05:20:59;99038.44;;;24.44;37.07
81990;BME280;71485;51.638;-0.182;2023-10-13T05:23:26;99044.42;;;24.42;37.09
81990;BME280;71485;51.638;-0.182;2023-10-13T05:25:51;99035.93;;;24.33;37.21
81990;BME280;71485;51.638;-0.182;2023-10-13T05:28:16;99025.88;;;24.75;36.97
81990;BME280;71485;51.638;-0.182;2023-10-13T05:30:41;99029.91;;;24.21;37.06
81990;BME280;71485;51.638;-0.182;2023-10-13T05:33:07;99017.46;;;24.64;37.14
81990;BME280;71485;51.638;-0.182;2023-10-13T05:35:32;99032.50;;;24.77;37.02
81990;BME280;71485;51.638;-0.182;2023-10-13T05:38:00;99029.70;;;24.72;37.11
81990;BME280;71485;51.638;-0.182;2023-10-13T05:40:23;99029.77;;;24.68;37.14
81990;BME280;71485;51.638;-0.182;2023-10-13T05:42:49;99021.50;;;24.39;37.23
81990;BME280;71485;51.638;-0.182;2023-10-13T05:45:14;99021.87;;;24.48;37.14
81990;BME280;71485;51.638;-0.182;2023-10-13T05:47:41;99012.88;;;24.39;37.23
81990;BME280;71485;51.638;-0.182;2023-10-13T05:50:06;99011.28;;;24.09;37.37
81990;BME280;71485;51.638;-0.182;2023-10-13T05:52:32;99015.18;;;24.44;37.28
81990;BME280;71485;51.638;-0.182;2023-10-13T05:54:57;99013.46;;;24.40;37.32
81990;BME280;71485;51.638;-0.182;2023-10-13T05:57:22;99009.57;;;24.37;37.36
81990;BME280;71485;51.638;-0.182;2023-10-13T05:59:49;99008.88;;;24.68;37.28
81990;BME280;71485;51.638;-0.182;2023-10-13T06:02:15;98993.67;;;24.62;37.37
81990;BME280;71485;51.638;-0.182;2023-10-13T06:04:40;98992.86;;;24.66;37.30
81990;BME280;71485;51.638;-0.182;2023-10-13T06:07:04;98992.53;;;24.71;37.28
81990;BME280;71485;51.638;-0.182;2023-10-13T06:09:31;98966.14;;;24.63;37.35
81990;BME280;71485;51.638;-0.182;2023-10-13T06:11:57;98976.63;;;24.54;37.55
81990;BME280;71485;51.638;-0.182;2023-10-13T06:14:21;98984.44;;;24.36;37.46
81990;BME280;71485;51.638;-0.182;2023-10-13T06:16:47;98989.76;;;24.37;37.42
81990;BME280;71485;51.638;-0.182;2023-10-13T06:19:12;98987.97;;;24.67;37.37
81990;BME280;71485;51.638;-0.182;2023-10-13T06:21:37;98978.87;;;24.65;37.43
81990;BME280;71485;51.638;-0.182;2023-10-13T06:24:03;98971.83;;;24.61;37.53
81990;BME280;71485;51.638;-0.182;2023-10-13T06:26:29;98973.70;;;24.41;37.45
81990;BME280;71485;51.638;-0.182;2023-10-13T06:28:53;98968.23;;;24.60;37.58
81990;BME280;71485;51.638;-0.182;2023-10-13T06:31:19;98966.94;;;24.61;37.63
81990;BME280;71485;51.638;-0.182;2023-10-13T06:33:44;98965.94;;;24.62;37.66
81990;BME280;71485;51.638;-0.182;2023-10-13T06:36:10;98957.94;;;24.46;37.66
81990;BME280;71485;51.638;-0.182;2023-10-13T06:38:36;98961.52;;;24.66;37.79
81990;BME280;71485;51.638;-0.182;2023-10-13T06:41:00;98965.30;;;24.40;38.04
81990;BME280;71485;51.638;-0.182;2023-10-13T06:43:26;98953.14;;;24.49;38.26
81990;BME280;71485;51.638;-0.182;2023-10-13T06:45:51;98949.24;;;24.69;38.27
81990;BME280;71485;51.638;-0.182;2023-10-13T06:48:16;98959.91;;;24.64;38.53
81990;BME280;71485;51.638;-0.182;2023-10-13T06:50:48;98961.30;;;24.18;38.48
81990;BME280;71485;51.638;-0.182;2023-10-13T06:53:08;98964.68;;;24.70;38.46
81990;BME280;71485;51.638;-0.182;2023-10-13T06:55:36;98966.55;;;24.62;38.75
81990;BME280;71485;51.638;-0.182;2023-10-13T06:57:58;98954.35;;;24.70;38.78
81990;BME280;71485;51.638;-0.182;2023-10-13T07:00:24;98961.24;;;24.35;38.78
81990;BME280;71485;51.638;-0.182;2023-10-13T07:02:49;98955.01;;;24.39;38.70
81990;BME280;71485;51.638;-0.182;2023-10-13T07:05:14;98965.98;;;24.61;38.79
81990;BME280;71485;51.638;-0.182;2023-10-13T07:07:40;98965.17;;;24.33;38.84
81990;BME280;71485;51.638;-0.182;2023-10-13T07:10:08;98955.83;;;24.56;38.73
81990;BME280;71485;51.638;-0.182;2023-10-13T07:12:31;98955.84;;;24.63;38.59
81990;BME280;71485;51.638;-0.182;2023-10-13T07:14:56;98957.71;;;24.61;38.62
81990;BME280;71485;51.638;-0.182;2023-10-13T07:17:23;98961.37;;;24.60;38.60
81990;BME280;71485;51.638;-0.182;2023-10-13T07:19:47;98950.63;;;24.62;38.52
81990;BME280;71485;51.638;-0.182;2023-10-13T07:22:14;98949.97;;;24.32;38.62
81990;BME280;71485;51.638;-0.182;2023-10-13T07:24:39;98950.50;;;24.67;38.49
81990;BME280;71485;51.638;-0.182;2023-10-13T07:27:04;98954.59;;;24.32;38.61
81990;BME280;71485;51.638;-0.182;2023-10-13T07:29:29;98955.32;;;24.58;38.61
81990;BME280;71485;51.638;-0.182;2023-10-13T07:31:55;98965.88;;;24.24;38.80
81990;BME280;71485;51.638;-0.182;2023-10-13T07:34:20;98955.40;;;24.60;38.65
81990;BME280;71485;51.638;-0.182;2023-10-13T07:36:46;98953.37;;;24.12;39.81
81990;BME280;71485;51.638;-0.182;2023-10-13T07:39:12;98961.59;;;24.58;39.16
81990;BME280;71485;51.638;-0.182;2023-10-13T07:41:36;98960.08;;;24.74;38.95
81990;BME280;71485;51.638;-0.182;2023-10-13T07:44:03;98962.10;;;24.72;39.96
81990;BME280;71485;51.638;-0.182;2023-10-13T07:46:27;98961.09;;;24.60;42.27
81990;BME280;71485;51.638;-0.182;2023-10-13T07:48:53;98956.57;;;24.86;38.37
81990;BME280;71485;51.638;-0.182;2023-10-13T07:51:20;98951.35;;;24.73;38.14
81990;BME280;71485;51.638;-0.182;2023-10-13T07:53:46;98957.64;;;24.78;39.37
81990;BME280;71485;51.638;-0.182;2023-10-13T07:56:10;98950.63;;;25.03;39.14
81990;BME280;71485;51.638;-0.182;2023-10-13T07:58:35;98948.19;;;24.71;38.49
81990;BME280;71485;51.638;-0.182;2023-10-13T08:01:00;98946.87;;;24.74;38.40
81990;BME280;71485;51.638;-0.182;2023-10-13T08:03:26;98946.71;;;25.32;38.03
81990;BME280;71485;51.638;-0.182;2023-10-13T08:05:52;98941.86;;;24.96;37.91
81990;BME280;71485;51.638;-0.182;2023-10-13T08:08:25;98948.84;;;25.07;37.65
81990;BME280;71485;51.638;-0.182;2023-10-13T08:10:44;98941.53;;;25.26;37.62
81990;BME280;71485;51.638;-0.182;2023-10-13T08:13:07;98953.99;;;25.18;37.76
81990;BME280;71485;51.638;-0.182;2023-10-13T08:15:32;98944.88;;;25.01;37.69
81990;BME280;71485;51.638;-0.182;2023-10-13T08:17:58;98944.73;;;25.04;37.64
81990;BME280;71485;51.638;-0.182;2023-10-13T08:20:23;98945.92;;;25.06;37.60
81990;BME280;71485;51.638;-0.182;2023-10-13T08:22:49;98953.65;;;25.08;37.50
81990;BME280;71485;51.638;-0.182;2023-10-13T08:25:15;98947.41;;;25.05;37.63
81990;BME280;71485;51.638;-0.182;2023-10-13T08:27:41;98952.07;;;24.98;37.78
81990;BME280;71485;51.638;-0.182;2023-10-13T08:30:07;98950.80;;;25.19;37.81
81990;BME280;71485;51.638;-0.182;2023-10-13T08:32:31;98949.18;;;24.82;38.36
81990;BME280;71485;51.638;-0.182;2023-10-13T08:34:58;98953.26;;;25.25;38.94
81990;BME280;71485;51.638;-0.182;2023-10-13T08:37:22;98953.12;;;25.50;39.35
81990;BME280;71485;51.638;-0.182;2023-10-13T08:39:49;98964.81;;;25.20;39.65
81990;BME280;71485;51.638;-0.182;2023-10-13T08:42:13;98962.39;;;25.31;39.52
81990;BME280;71485;51.638;-0.182;2023-10-13T08:44:38;98965.97;;;25.30;39.49
81990;BME280;71485;51.638;-0.182;2023-10-13T08:47:03;98966.74;;;25.21;39.12
81990;BME280;71485;51.638;-0.182;2023-10-13T08:49:29;98963.10;;;25.24;38.77
81990;BME280;71485;51.638;-0.182;2023-10-13T08:51:55;98964.99;;;24.86;38.86
81990;BME280;71485;51.638;-0.182;2023-10-13T08:54:20;98967.02;;;25.32;38.75
81990;BME280;71485;51.638;-0.182;2023-10-13T08:56:47;98975.81;;;24.90;38.50
81990;BME280;71485;51.638;-0.182;2023-10-13T08:59:12;98972.25;;;25.27;38.49
81990;BME280;71485;51.638;-0.182;2023-10-13T09:01:36;98972.65;;;25.31;38.36
81990;BME280;71485;51.638;-0.182;2023-10-13T09:04:03;98974.49;;;25.28;38.32
81990;BME280;71485;51.638;-0.182;2023-10-13T09:06:27;98975.67;;;25.33;38.20
81990;BME280;71485;51.638;-0.182;2023-10-13T09:08:53;98979.24;;;25.10;38.15
81990;BME280;71485;51.638;-0.182;2023-10-13T09:11:21;98981.70;;;25.36;38.04
81990;BME280;71485;51.638;-0.182;2023-10-13T09:13:44;98983.18;;;24.82;38.08
81990;BME280;71485;51.638;-0.182;2023-10-13T09:16:11;98979.95;;;25.23;37.84
81990;BME280;71485;51.638;-0.182;2023-10-13T09:18:35;98976.75;;;25.29;37.99
81990;BME280;71485;51.638;-0.182;2023-10-13T09:21:00;98976.17;;;25.09;37.96
81990;BME280;71485;51.638;-0.182;2023-10-13T09:23:26;98968.51;;;25.10;37.97
81990;BME280;71485;51.638;-0.182;2023-10-13T09:25:53;98980.36;;;25.06;38.08
81990;BME280;71485;51.638;-0.182;2023-10-13T09:28:18;98992.91;;;25.12;38.49
81990;BME280;71485;51.638;-0.182;2023-10-13T09:30:44;98977.97;;;24.03;39.06
81990;BME280;71485;51.638;-0.182;2023-10-13T09:33:08;98977.20;;;24.72;39.16
81990;BME280;71485;51.638;-0.182;2023-10-13T09:35:33;98978.84;;;24.74;39.09
81990;BME280;71485;51.638;-0.182;2023-10-13T09:38:00;98968.37;;;24.44;39.16
81990;BME280;71485;51.638;-0.182;2023-10-13T09:40:24;98965.72;;;24.47;39.14
81990;BME280;71485;51.638;-0.182;2023-10-13T09:42:51;98981.71;;;24.61;38.90
81990;BME280;71485;51.638;-0.182;2023-10-13T09:45:19;98977.72;;;25.07;38.47
81990;BME280;71485;51.638;-0.182;2023-10-13T09:47:40;98968.51;;;24.86;38.13
81990;BME280;71485;51.638;-0.182;2023-10-13T09:50:08;98969.75;;;25.15;38.06
81990;BME280;71485;51.638;-0.182;2023-10-13T09:52:32;98970.64;;;25.29;38.22
81990;BME280;71485;51.638;-0.182;2023-10-13T09:55:06;98970.85;;;25.39;37.97
81990;BME280;71485;51.638;-0.182;2023-10-13T09:57:22;98969.76;;;25.52;37.72
81990;BME280;71485;51.638;-0.182;2023-10-13T09:59:51;98978.60;;;25.27;37.69
81990;BME280;71485;51.638;-0.182;2023-10-13T10:02:13;98979.49;;;25.42;37.85
81990;BME280;71485;51.638;-0.182;2023-10-13T10:04:39;98973.07;;;25.40;37.54
81990;BME280;71485;51.638;-0.182;2023-10-13T10:07:04;98965.33;;;25.26;37.72
81990;BME280;71485;51.638;-0.182;2023-10-13T10:09:33;98978.67;;;25.42;37.83
81990;BME280;71485;51.638;-0.182;2023-10-13T10:12:09;98970.10;;;25.29;37.69
81990;BME280;71485;51.638;-0.182;2023-10-13T10:14:32;98973.67;;;25.22;37.80
81990;BME280;71485;51.638;-0.182;2023-10-13T10:16:56;98970.44;;;25.17;37.82
81990;BME280;71485;51.638;-0.182;2023-10-13T10:19:12;98966.54;;;25.70;37.78
81990;BME280;71485;51.638;-0.182;2023-10-13T10:21:38;98967.46;;;25.28;37.69
81990;BME280;71485;51.638;-0.182;2023-10-13T10:24:14;98970.88;;;25.02;37.70
81990;BME280;71485;51.638;-0.182;2023-10-13T10:26:30;98977.31;;;25.46;37.77
81990;BME280;71485;51.638;-0.182;2023-10-13T10:28:54;98969.62;;;25.24;37.75
81990;BME280;71485;51.638;-0.182;2023-10-13T10:31:19;98972.01;;;25.26;37.75
81990;BME280;71485;51.638;-0.182;2023-10-13T10:33:46;98972.93;;;25.24;37.79
81990;BME280;71485;51.638;-0.182;2023-10-13T10:36:10;98972.36;;;25.31;37.69
81990;BME280;71485;51.638;-0.182;2023-10-13T10:38:36;98975.32;;;25.36;37.69
81990;BME280;71485;51.638;-0.182;2023-10-13T10:41:02;98968.66;;;25.28;37.74
81990;BME280;71485;51.638;-0.182;2023-10-13T10:43:29;98968.08;;;25.40;37.60
81990;BME280;71485;51.638;-0.182;2023-10-13T10:45:53;98963.75;;;25.45;37.53
81990;BME280;71485;51.638;-0.182;2023-10-13T10:48:19;98950.90;;;25.39;37.59
81990;BME280;71485;51.638;-0.182;2023-10-13T10:50:44;98953.54;;;25.08;37.73
81990;BME280;71485;51.638;-0.182;2023-10-13T10:53:09;98953.05;;;25.65;37.62
81990;BME280;71485;51.638;-0.182;2023-10-13T10:55:35;98952.59;;;25.59;37.70
81990;BME280;71485;51.638;-0.182;2023-10-13T10:58:00;98956.01;;;25.40;37.64
81990;BME280;71485;51.638;-0.182;2023-10-13T11:00:26;98943.95;;;25.48;37.53
81990;BME280;71485;51.638;-0.182;2023-10-13T11:02:54;98944.06;;;25.47;37.53
81990;BME280;71485;51.638;-0.182;2023-10-13T11:05:17;98927.84;;;25.48;37.55
81990;BME280;71485;51.638;-0.182;2023-10-13T11:07:45;98938.33;;;25.31;37.40
81990;BME280;71485;51.638;-0.182;2023-10-13T11:10:10;98929.57;;;25.65;37.29
81990;BME280;71485;51.638;-0.182;2023-10-13T11:12:34;98934.72;;;25.66;37.36
81990;BME280;71485;51.638;-0.182;2023-10-13T11:15:01;98939.48;;;25.48;37.32
81990;BME280;71485;51.638;-0.182;2023-10-13T11:17:24;98931.71;;;25.52;37.30
81990;BME280;71485;51.638;-0.182;2023-10-13T11:19:50;98922.82;;;25.35;37.55
81990;BME280;71485;51.638;-0.182;2023-10-13T11:22:20;98929.25;;;25.86;37.70
81990;BME280;71485;51.638;-0.182;2023-10-13T11:24:41;98928.58;;;25.44;37.84
81990;BME280;71485;51.638;-0.182;2023-10-13T11:27:15;98929.62;;;25.75;38.33
81990;BME280;71485;51.638;-0.182;2023-10-13T11:29:33;98929.25;;;25.96;38.28
81990;BME280;71485;51.638;-0.182;2023-10-13T11:31:58;98928.67;;;25.92;38.48
81990;BME280;71485;51.638;-0.182;2023-10-13T11:34:23;98939.38;;;25.79;38.43
81990;BME280;71485;51.638;-0.182;2023-10-13T11:36:48;98939.83;;;25.50;38.66
81990;BME280;71485;51.638;-0.182;2023-10-13T11:39:15;98933.41;;;25.79;38.99
81990;BME280;71485;51.638;-0.182;2023-10-13T11:41:40;98930.68;;;25.99;38.93
81990;BME280;71485;51.638;-0.182;2023-10-13T11:44:05;98922.98;;;25.54;38.79
81990;BME280;71485;51.638;-0.182;2023-10-13T11:46:31;98929.52;;;26.09;38.67
81990;BME280;71485;51.638;-0.182;2023-10-13T11:48:56;98918.69;;;25.81;38.67
81990;BME280;71485;51.638;-0.182;2023-10-13T11:51:23;98924.62;;;26.06;38.51
81990;BME280;71485;51.638;-0.182;2023-10-13T11:53:47;98928.52;;;25.99;38.20
81990;BME280;71485;51.638;-0.182;2023-10-13T11:56:12;98925.33;;;26.01;38.21
81990;BME280;71485;51.638;-0.182;2023-10-13T11:58:38;98919.95;;;26.04;38.01
81990;BME280;71485;51.638;-0.182;2023-10-13T12:01:03;98915.73;;;25.78;38.13
81990;BME280;71485;51.638;-0.182;2023-10-13T12:03:28;98916.96;;;26.33;37.99
81990;BME280;71485;51.638;-0.182;2023-10-13T12:05:53;98923.03;;;25.75;38.12
81990;BME280;71485;51.638;-0.182;2023-10-13T12:08:26;98926.88;;;25.91;38.24
81990;BME280;71485;51.638;-0.182;2023-10-13T12:10:44;98921.83;;;25.64;38.30
81990;BME280;71485;51.638;-0.182;2023-10-13T12:13:11;98925.94;;;25.83;38.07
81990;BME280;71485;51.638;-0.182;2023-10-13T12:15:36;98931.14;;;26.10;38.08
81990;BME280;71485;51.638;-0.182;2023-10-13T12:18:00;98926.38;;;25.78;38.12
81990;BME280;71485;51.638;-0.182;2023-10-13T12:20:27;98923.68;;;25.75;38.06
81990;BME280;71485;51.638;-0.182;2023-10-13T12:22:51;98918.77;;;26.01;38.08
81990;BME280;71485;51.638;-0.182;2023-10-13T12:25:17;98918.31;;;25.74;38.13
81990;BME280;71485;51.638;-0.182;2023-10-13T12:27:42;98921.63;;;25.81;37.93
81990;BME280;71485;51.638;-0.182;2023-10-13T12:30:08;98914.98;;;26.05;37.96
81990;BME280;71485;51.638;-0.182;2023-10-13T12:32:32;98907.65;;;25.81;37.97
81990;BME280;71485;51.638;-0.182;2023-10-13T12:34:58;98905.87;;;25.87;37.84
81990;BME280;71485;51.638;-0.182;2023-10-13T12:37:23;98915.68;;;25.83;37.84
81990;BME280;71485;51.638;-0.182;2023-10-13T12:39:49;98902.09;;;25.57;37.86